createdAt,value
2023-12-16T00:00:37.069Z,2062.00
2023-12-16T00:01:40.351Z,2059.00
2023-12-16T00:02:37.049Z,2059.00
2023-12-16T00:03:37.054Z,2057.00
2023-12-16T00:04:37.127Z,2057.00
2023-12-16T00:05:37.053Z,2060.00
2023-12-16T00:06:37.128Z,2060.00
2023-12-16T00:07:37.338Z,2057.00
2023-12-16T00:08:37.170Z,2057.00
2023-12-16T00:09:37.229Z,2057.00
2023-12-16T00:10:37.290Z,2057.00
2023-12-16T00:11:37.358Z,2054.00
2023-12-16T00:12:37.407Z,2052.00
2023-12-16T00:13:37.510Z,2046.00
2023-12-16T00:14:37.631Z,2046.00
2023-12-16T00:15:37.604Z,2043.00
2023-12-16T00:16:37.637Z,2037.00
2023-12-16T00:17:38.321Z,2037.00
2023-12-16T00:18:37.906Z,2035.00
2023-12-16T00:19:37.855Z,2031.00
2023-12-16T00:20:37.858Z,2029.00
2023-12-16T00:21:37.904Z,2030.00
2023-12-16T00:22:37.948Z,2030.00
2023-12-16T00:23:38.032Z,2029.00
2023-12-16T00:24:38.914Z,2030.00
2023-12-16T00:25:38.430Z,2029.00
2023-12-16T00:26:38.172Z,2029.00
2023-12-16T00:27:38.450Z,2025.00
2023-12-16T00:28:38.288Z,2017.00
2023-12-16T00:29:38.351Z,2010.00
2023-12-16T00:30:38.409Z,2001.00
2023-12-16T00:31:38.545Z,2001.00
2023-12-16T00:32:38.556Z,2002.00
2023-12-16T00:33:38.639Z,2001.00
2023-12-16T00:34:38.695Z,2000.00
2023-12-16T00:35:38.729Z,2000.00
2023-12-16T00:36:38.778Z,1996.00
2023-12-16T00:37:39.303Z,1992.00
2023-12-16T00:38:38.902Z,1990.00
2023-12-16T00:39:38.964Z,1986.00
2023-12-16T00:40:39.089Z,1983.00
2023-12-16T00:41:39.091Z,1981.00
2023-12-16T00:42:39.172Z,1981.00
2023-12-16T00:43:39.241Z,1981.00
2023-12-16T00:44:39.294Z,1978.00
2023-12-16T00:45:39.347Z,1978.00
2023-12-16T00:46:39.440Z,1973.00
2023-12-16T00:47:40.369Z,1970.00
2023-12-16T00:48:39.611Z,1968.00
2023-12-16T00:49:39.693Z,1964.00
2023-12-16T00:50:39.778Z,1967.00
2023-12-16T00:51:39.744Z,1970.00
2023-12-16T00:52:39.768Z,1972.00
2023-12-16T00:53:39.828Z,1971.00
2023-12-16T00:54:39.884Z,1972.00
2023-12-16T00:55:40.003Z,1969.00
2023-12-16T00:56:40.028Z,1966.00
2023-12-16T00:57:40.399Z,1964.00
2023-12-16T00:58:40.137Z,1962.00
2023-12-16T00:59:40.202Z,1956.00
2023-12-16T01:00:40.290Z,1956.00
2023-12-16T01:01:40.438Z,1955.00
2023-12-16T01:02:40.380Z,1955.00
2023-12-16T01:03:40.513Z,1957.00
2023-12-16T01:04:40.580Z,1958.00
2023-12-16T01:05:40.678Z,1956.00
2023-12-16T01:06:40.599Z,1956.00
2023-12-16T01:07:40.959Z,1950.00
2023-12-16T01:08:40.711Z,1947.00
2023-12-16T01:09:40.866Z,1946.00
2023-12-16T01:10:40.850Z,1945.00
2023-12-16T01:11:40.933Z,1943.00
2023-12-16T01:12:41.940Z,1941.00
2023-12-16T01:13:41.038Z,1939.00
2023-12-16T01:14:41.082Z,1933.00
2023-12-16T01:15:41.140Z,1932.00
2023-12-16T01:16:41.200Z,1932.00
2023-12-16T01:17:41.696Z,1931.00
2023-12-16T01:18:41.401Z,1925.00
2023-12-16T01:19:41.399Z,1923.00
2023-12-16T01:20:41.933Z,1921.00
2023-12-16T01:21:41.447Z,1925.00
2023-12-16T01:22:41.504Z,1923.00
2023-12-16T01:23:41.567Z,1921.00
2023-12-16T01:24:41.687Z,1918.00
2023-12-16T01:25:41.659Z,1918.00
2023-12-16T01:26:41.730Z,1917.00
2023-12-16T01:27:41.778Z,1914.00
2023-12-16T01:28:41.817Z,1911.00
2023-12-16T01:29:41.874Z,1910.00
2023-12-16T01:30:41.955Z,1911.00
2023-12-16T01:31:42.033Z,1908.00
2023-12-16T01:32:42.059Z,1907.00
2023-12-16T01:33:42.110Z,1904.00
2023-12-16T01:34:42.225Z,1903.00
2023-12-16T01:35:42.185Z,1902.00
2023-12-16T01:36:42.352Z,1898.00
2023-12-16T01:37:42.327Z,1892.00
2023-12-16T01:38:42.409Z,1892.00
2023-12-16T01:39:42.520Z,1891.00
2023-12-16T01:40:42.657Z,1889.00
2023-12-16T01:41:42.939Z,1888.00
2023-12-16T01:42:42.685Z,1884.00
2023-12-16T01:43:42.725Z,1887.00
2023-12-16T01:44:42.781Z,1890.00
2023-12-16T01:45:42.934Z,1892.00
2023-12-16T01:46:43.004Z,1890.00
2023-12-16T01:47:43.287Z,1886.00
2023-12-16T01:48:43.218Z,1885.00
2023-12-16T01:49:43.945Z,1887.00
2023-12-16T01:50:43.147Z,1886.00
2023-12-16T01:51:43.228Z,1884.00
2023-12-16T01:52:43.271Z,1883.00
2023-12-16T01:53:43.330Z,1881.00
2023-12-16T01:54:43.416Z,1879.00
2023-12-16T01:55:43.464Z,1878.00
2023-12-16T01:56:43.525Z,1878.00
2023-12-16T01:57:43.616Z,1875.00
2023-12-16T01:58:43.678Z,1874.00
2023-12-16T01:59:44.533Z,1874.00
2023-12-16T02:00:43.845Z,1872.00
2023-12-16T02:01:43.978Z,1869.00
2023-12-16T02:02:43.915Z,1866.00
2023-12-16T02:03:44.045Z,1866.00
2023-12-16T02:04:44.086Z,1867.00
2023-12-16T02:05:44.215Z,1868.00
2023-12-16T02:06:44.395Z,1864.00
2023-12-16T02:07:44.319Z,1861.00
2023-12-16T02:08:44.316Z,1860.00
2023-12-16T02:09:44.483Z,1857.00
2023-12-16T02:10:44.488Z,1858.00
2023-12-16T02:11:44.536Z,1851.00
2023-12-16T02:12:44.577Z,1847.00
2023-12-16T02:13:44.641Z,1847.00
2023-12-16T02:14:44.699Z,1848.00
2023-12-16T02:15:44.835Z,1846.00
2023-12-16T02:16:44.796Z,1841.00
2023-12-16T02:17:44.890Z,1842.00
2023-12-16T02:18:45.029Z,1842.00
2023-12-16T02:19:45.156Z,1842.00
2023-12-16T02:20:45.080Z,1842.00
2023-12-16T02:21:45.148Z,1843.00
2023-12-16T02:22:45.192Z,1836.00
2023-12-16T02:23:45.248Z,1836.00
2023-12-16T02:24:45.320Z,1832.00
2023-12-16T02:25:45.386Z,1826.00
2023-12-16T02:26:45.417Z,1823.00
2023-12-16T02:27:45.572Z,1819.00
2023-12-16T02:28:45.547Z,1818.00
2023-12-16T02:29:45.618Z,1820.00
2023-12-16T02:30:45.765Z,1818.00
2023-12-16T02:31:45.850Z,1815.00
2023-12-16T02:32:45.908Z,1820.00
2023-12-16T02:33:45.995Z,1819.00
2023-12-16T02:34:45.994Z,1817.00
2023-12-16T02:35:46.039Z,1814.00
2023-12-16T02:36:46.117Z,1808.00
2023-12-16T02:37:46.120Z,1806.00
2023-12-16T02:38:46.217Z,1805.00
2023-12-16T02:39:46.240Z,1807.00
2023-12-16T02:40:46.292Z,1805.00
2023-12-16T02:41:46.351Z,1804.00
2023-12-16T02:42:46.414Z,1804.00
2023-12-16T02:43:46.493Z,1806.00
2023-12-16T02:44:46.593Z,1801.00
2023-12-16T02:45:46.658Z,1800.00
2023-12-16T02:46:46.736Z,1796.00
2023-12-16T02:47:46.826Z,1793.00
2023-12-16T02:48:46.963Z,1790.00
2023-12-16T02:49:47.069Z,1787.00
2023-12-16T02:50:47.001Z,1780.00
2023-12-16T02:51:47.096Z,1778.00
2023-12-16T02:52:47.103Z,1777.00
2023-12-16T02:53:47.206Z,1776.00
2023-12-16T02:54:47.274Z,1773.00
2023-12-16T02:55:47.321Z,1770.00
2023-12-16T02:56:47.512Z,1767.00
2023-12-16T02:57:47.463Z,1770.00
2023-12-16T02:58:48.462Z,1773.00
2023-12-16T02:59:47.564Z,1777.00
2023-12-16T03:00:47.713Z,1775.00
2023-12-16T03:01:47.807Z,1772.00
2023-12-16T03:02:47.848Z,1772.00
2023-12-16T03:03:47.938Z,1770.00
2023-12-16T03:04:47.938Z,1772.00
2023-12-16T03:05:48.102Z,1771.00
2023-12-16T03:06:48.099Z,1770.00
2023-12-16T03:07:48.124Z,1768.00
2023-12-16T03:08:48.977Z,1764.00
2023-12-16T03:09:48.315Z,1762.00
2023-12-16T03:10:48.342Z,1759.00
2023-12-16T03:11:48.412Z,1757.00
2023-12-16T03:12:48.529Z,1756.00
2023-12-16T03:13:48.497Z,1759.00
2023-12-16T03:14:48.554Z,1758.00
2023-12-16T03:15:48.723Z,1760.00
2023-12-16T03:16:48.666Z,1759.00
2023-12-16T03:17:48.752Z,1754.00
2023-12-16T03:18:49.532Z,1757.00
2023-12-16T03:19:48.974Z,1752.00
2023-12-16T03:20:48.882Z,1751.00
2023-12-16T03:21:48.988Z,1749.00
2023-12-16T03:22:49.006Z,1743.00
2023-12-16T03:23:49.053Z,1743.00
2023-12-16T03:24:49.201Z,1740.00
2023-12-16T03:25:49.186Z,1739.00
2023-12-16T03:26:49.273Z,1737.00
2023-12-16T03:27:49.442Z,1734.00
2023-12-16T03:28:49.359Z,1731.00
2023-12-16T03:29:49.441Z,1727.00
2023-12-16T03:30:49.568Z,1725.00
2023-12-16T03:31:49.598Z,1723.00
2023-12-16T03:32:49.685Z,1723.00
2023-12-16T03:33:50.779Z,1720.00
2023-12-16T03:34:49.834Z,1717.00
2023-12-16T03:35:49.783Z,1716.00
2023-12-16T03:36:49.876Z,1718.00
2023-12-16T03:37:49.890Z,1716.00
2023-12-16T03:38:49.952Z,1713.00
2023-12-16T03:39:50.075Z,1711.00
2023-12-16T03:40:50.239Z,1713.00
2023-12-16T03:41:50.129Z,1712.00
2023-12-16T03:42:50.255Z,1712.00
2023-12-16T03:43:50.510Z,1710.00
2023-12-16T03:44:50.482Z,1711.00
2023-12-16T03:45:50.526Z,1713.00
2023-12-16T03:46:50.565Z,1710.00
2023-12-16T03:47:50.627Z,1714.00
2023-12-16T03:48:50.754Z,1713.00
2023-12-16T03:49:50.818Z,1712.00
2023-12-16T03:50:50.739Z,1711.00
2023-12-16T03:51:50.809Z,1708.00
2023-12-16T03:52:50.912Z,1707.00
2023-12-16T03:53:50.921Z,1699.00
2023-12-16T03:54:51.052Z,1697.00
2023-12-16T03:55:51.006Z,1697.00
2023-12-16T03:56:51.132Z,1698.00
2023-12-16T03:57:51.255Z,1696.00
2023-12-16T03:58:51.313Z,1694.00
2023-12-16T03:59:51.491Z,1696.00
2023-12-16T04:00:52.087Z,1696.00
2023-12-16T04:01:51.646Z,1693.00
2023-12-16T04:02:51.537Z,1693.00
2023-12-16T04:03:51.589Z,1689.00
2023-12-16T04:04:51.581Z,1686.00
2023-12-16T04:05:51.657Z,1683.00
2023-12-16T04:06:51.794Z,1683.00
2023-12-16T04:07:51.751Z,1682.00
2023-12-16T04:08:51.788Z,1681.00
2023-12-16T04:09:51.846Z,1680.00
2023-12-16T04:10:51.885Z,1678.00
2023-12-16T04:11:51.951Z,1678.00
2023-12-16T04:12:51.990Z,1679.00
2023-12-16T04:13:52.033Z,1679.00
2023-12-16T04:14:52.086Z,1680.00
2023-12-16T04:15:52.203Z,1675.00
2023-12-16T04:16:52.236Z,1676.00
2023-12-16T04:17:52.405Z,1672.00
2023-12-16T04:18:52.445Z,1671.00
2023-12-16T04:19:52.462Z,1670.00
2023-12-16T04:20:52.418Z,1668.00
2023-12-16T04:21:52.590Z,1664.00
2023-12-16T04:22:52.520Z,1661.00
2023-12-16T04:23:52.559Z,1661.00
2023-12-16T04:24:52.644Z,1659.00
2023-12-16T04:25:52.649Z,1655.00
2023-12-16T04:26:59.866Z,1624.00
2023-12-16T04:27:59.911Z,1621.00
2023-12-16T04:29:00.002Z,1623.00
2023-12-16T04:29:59.880Z,1627.00
2023-12-16T04:31:07.214Z,1629.00
2023-12-16T04:32:07.141Z,1637.00
2023-12-16T04:33:07.202Z,1639.00
2023-12-16T04:34:07.206Z,1638.00
2023-12-16T04:35:07.218Z,1638.00
2023-12-16T04:36:07.143Z,1643.00
2023-12-16T04:37:07.199Z,1642.00
2023-12-16T04:38:07.178Z,1643.00
2023-12-16T04:39:07.145Z,1640.00
2023-12-16T04:40:07.193Z,1638.00
2023-12-16T04:41:07.152Z,1637.00
2023-12-16T04:42:07.160Z,1631.00
2023-12-16T04:43:07.166Z,1628.00
2023-12-16T04:44:07.182Z,1631.00
2023-12-16T04:45:07.175Z,1631.00
2023-12-16T04:46:07.164Z,1627.00
2023-12-16T04:47:07.244Z,1624.00
2023-12-16T04:48:07.314Z,1624.00
2023-12-16T04:49:07.241Z,1622.00
2023-12-16T04:50:07.167Z,1618.00
2023-12-16T04:51:07.728Z,1619.00
2023-12-16T04:52:07.195Z,1618.00
2023-12-16T04:53:07.180Z,1619.00
2023-12-16T04:54:07.179Z,1618.00
2023-12-16T04:55:07.248Z,1619.00
2023-12-16T04:56:07.175Z,1617.00
2023-12-16T04:57:07.194Z,1615.00
2023-12-16T04:58:07.232Z,1615.00
2023-12-16T04:59:07.178Z,1616.00
2023-12-16T05:00:07.176Z,1616.00
2023-12-16T05:01:07.282Z,1609.00
2023-12-16T05:02:07.320Z,1607.00
2023-12-16T05:03:07.182Z,1606.00
2023-12-16T05:04:07.272Z,1607.00
2023-12-16T05:05:07.195Z,1604.00
2023-12-16T05:06:07.236Z,1602.00
2023-12-16T05:07:07.247Z,1601.00
2023-12-16T05:08:07.189Z,1601.00
2023-12-16T05:09:07.193Z,1598.00
2023-12-16T05:10:07.215Z,1595.00
2023-12-16T05:11:07.302Z,1594.00
2023-12-16T05:12:07.194Z,1594.00
2023-12-16T05:13:07.233Z,1590.00
2023-12-16T05:14:07.215Z,1587.00
2023-12-16T05:15:07.207Z,1588.00
2023-12-16T05:16:08.973Z,1591.00
2023-12-16T05:17:07.204Z,1591.00
2023-12-16T05:18:07.260Z,1592.00
2023-12-16T05:19:07.345Z,1589.00
2023-12-16T05:20:07.310Z,1586.00
2023-12-16T05:21:07.262Z,1581.00
2023-12-16T05:22:07.342Z,1580.00
2023-12-16T05:23:07.310Z,1579.00
2023-12-16T05:24:07.309Z,1580.00
2023-12-16T05:25:07.358Z,1582.00
2023-12-16T05:26:07.354Z,1582.00
2023-12-16T05:27:07.395Z,1578.00
2023-12-16T05:28:07.489Z,1579.00
2023-12-16T05:29:07.447Z,1578.00
2023-12-16T05:30:09.811Z,1574.00
2023-12-16T05:31:07.548Z,1570.00
2023-12-16T05:32:07.485Z,1567.00
2023-12-16T05:33:07.565Z,1567.00
2023-12-16T05:34:07.650Z,1563.00
2023-12-16T05:35:07.487Z,1562.00
2023-12-16T05:36:07.539Z,1560.00
2023-12-16T05:37:07.505Z,1560.00
2023-12-16T05:38:07.493Z,1558.00
2023-12-16T05:39:07.495Z,1556.00
2023-12-16T05:40:07.534Z,1560.00
2023-12-16T05:41:07.516Z,1560.00
2023-12-16T05:42:07.494Z,1562.00
2023-12-16T05:43:07.526Z,1561.00
2023-12-16T05:44:07.566Z,1559.00
2023-12-16T05:45:07.513Z,1558.00
2023-12-16T05:46:07.557Z,1556.00
2023-12-16T05:47:07.495Z,1553.00
2023-12-16T05:48:07.676Z,1552.00
2023-12-16T05:49:07.612Z,1555.00
2023-12-16T05:50:07.507Z,1555.00
2023-12-16T05:51:07.513Z,1552.00
2023-12-16T05:52:07.548Z,1548.00
2023-12-16T05:53:07.532Z,1543.00
2023-12-16T05:54:07.501Z,1542.00
2023-12-16T05:55:07.554Z,1540.00
2023-12-16T05:56:07.588Z,1537.00
2023-12-16T05:57:07.506Z,1537.00
2023-12-16T05:58:07.554Z,1537.00
2023-12-16T05:59:07.518Z,1538.00
2023-12-16T06:00:07.507Z,1539.00
2023-12-16T06:01:07.679Z,1539.00
2023-12-16T06:02:07.515Z,1539.00
2023-12-16T06:03:07.598Z,1543.00
2023-12-16T06:04:07.553Z,1541.00
2023-12-16T06:05:07.609Z,1536.00
2023-12-16T06:06:07.542Z,1532.00
2023-12-16T06:07:07.558Z,1529.00
2023-12-16T06:08:07.550Z,1528.00
2023-12-16T06:09:07.520Z,1526.00
2023-12-16T06:10:08.264Z,1524.00
2023-12-16T06:11:07.521Z,1521.00
2023-12-16T06:12:07.517Z,1518.00
2023-12-16T06:13:07.562Z,1517.00
2023-12-16T06:14:07.529Z,1516.00
2023-12-16T06:15:07.538Z,1517.00
2023-12-16T06:16:16.573Z,1517.00
2023-12-16T06:17:08.777Z,1515.00
2023-12-16T06:18:07.588Z,1514.00
2023-12-16T06:19:07.689Z,1514.00
2023-12-16T06:20:07.577Z,1514.00
2023-12-16T06:21:07.534Z,1512.00
2023-12-16T06:22:07.545Z,1511.00
2023-12-16T06:23:07.533Z,1511.00
2023-12-16T06:24:07.553Z,1512.00
2023-12-16T06:25:07.635Z,1510.00
2023-12-16T06:26:07.531Z,1508.00
2023-12-16T06:27:07.539Z,1505.00
2023-12-16T06:28:07.635Z,1506.00
2023-12-16T06:29:07.532Z,1505.00
2023-12-16T06:30:07.575Z,1503.00
2023-12-16T06:31:07.635Z,1503.00
2023-12-16T06:32:07.565Z,1502.00
2023-12-16T06:33:07.674Z,1503.00
2023-12-16T06:34:07.597Z,1501.00
2023-12-16T06:35:07.568Z,1500.00
2023-12-16T06:36:07.566Z,1497.00
2023-12-16T06:37:07.585Z,1496.00
2023-12-16T06:38:07.582Z,1496.00
2023-12-16T06:39:07.585Z,1495.00
2023-12-16T06:40:07.607Z,1492.00
2023-12-16T06:41:07.575Z,1490.00
2023-12-16T06:42:07.566Z,1489.00
2023-12-16T06:43:07.663Z,1486.00
2023-12-16T06:44:07.568Z,1487.00
2023-12-16T06:45:07.574Z,1491.00
2023-12-16T06:46:07.603Z,1489.00
2023-12-16T06:47:07.583Z,1488.00
2023-12-16T06:48:07.624Z,1488.00
2023-12-16T06:49:07.615Z,1488.00
2023-12-16T06:50:07.576Z,1485.00
2023-12-16T06:51:07.605Z,1485.00
2023-12-16T06:52:07.581Z,1485.00
2023-12-16T06:53:07.615Z,1483.00
2023-12-16T06:54:07.589Z,1479.00
2023-12-16T06:55:07.724Z,1478.00
2023-12-16T06:56:07.884Z,1476.00
2023-12-16T06:57:07.813Z,1473.00
2023-12-16T06:58:07.891Z,1472.00
2023-12-16T06:59:08.764Z,1471.00
2023-12-16T07:00:07.848Z,1471.00
2023-12-16T07:01:07.904Z,1473.00
2023-12-16T07:02:07.892Z,1471.00
2023-12-16T07:03:07.880Z,1470.00
2023-12-16T07:04:07.983Z,1470.00
2023-12-16T07:05:07.916Z,1468.00
2023-12-16T07:06:07.931Z,1466.00
2023-12-16T07:07:07.939Z,1465.00
2023-12-16T07:08:08.009Z,1464.00
2023-12-16T07:09:07.954Z,1467.00
2023-12-16T07:10:08.071Z,1468.00
2023-12-16T07:11:08.080Z,1463.00
2023-12-16T07:12:08.077Z,1462.00
2023-12-16T07:13:08.133Z,1460.00
2023-12-16T07:14:08.101Z,1456.00
2023-12-16T07:15:08.105Z,1454.00
2023-12-16T07:16:08.185Z,1453.00
2023-12-16T07:17:08.165Z,1452.00
2023-12-16T07:18:08.213Z,1451.00
2023-12-16T07:19:08.291Z,1449.00
2023-12-16T07:20:08.281Z,1449.00
2023-12-16T07:21:08.398Z,1449.00
2023-12-16T07:22:08.392Z,1447.00
2023-12-16T07:23:08.476Z,1444.00
2023-12-16T07:24:08.386Z,1444.00
2023-12-16T07:25:08.437Z,1440.00
2023-12-16T07:26:08.481Z,1441.00
2023-12-16T07:27:08.413Z,1443.00
2023-12-16T07:28:08.556Z,1443.00
2023-12-16T07:29:08.444Z,1445.00
2023-12-16T07:30:08.504Z,1441.00
2023-12-16T07:31:08.694Z,1443.00
2023-12-16T07:32:08.630Z,1444.00
2023-12-16T07:33:08.864Z,1441.00
2023-12-16T07:34:08.775Z,1439.00
2023-12-16T07:35:08.821Z,1439.00
2023-12-16T07:36:08.785Z,1438.00
2023-12-16T07:37:08.815Z,1437.00
2023-12-16T07:38:08.802Z,1434.00
2023-12-16T07:39:08.810Z,1436.00
2023-12-16T07:40:08.855Z,1436.00
2023-12-16T07:41:08.938Z,1434.00
2023-12-16T07:42:08.991Z,1434.00
2023-12-16T07:43:09.008Z,1431.00
2023-12-16T07:44:08.992Z,1429.00
2023-12-16T07:45:09.028Z,1425.00
2023-12-16T07:46:09.056Z,1419.00
2023-12-16T07:47:09.064Z,1417.00
2023-12-16T07:48:09.204Z,1413.00
2023-12-16T07:49:09.159Z,1410.00
2023-12-16T07:50:09.123Z,1406.00
2023-12-16T07:51:09.244Z,1406.00
2023-12-16T07:52:09.369Z,1404.00
2023-12-16T07:53:09.390Z,1403.00
2023-12-16T07:54:09.390Z,1399.00
2023-12-16T07:55:09.453Z,1396.00
2023-12-16T07:56:09.434Z,1396.00
2023-12-16T07:57:09.434Z,1395.00
2023-12-16T07:58:09.519Z,1393.00
2023-12-16T07:59:09.521Z,1389.00
2023-12-16T08:00:09.553Z,1385.00
2023-12-16T08:01:10.298Z,1384.00
2023-12-16T08:02:09.604Z,1384.00
2023-12-16T08:03:09.646Z,1384.00
2023-12-16T08:04:09.655Z,1382.00
2023-12-16T08:05:09.626Z,1383.00
2023-12-16T08:06:09.691Z,1383.00
2023-12-16T08:07:09.781Z,1385.00
2023-12-16T08:08:09.852Z,1381.00
2023-12-16T08:09:09.861Z,1381.00
2023-12-16T08:10:09.961Z,1381.00
2023-12-16T08:11:09.909Z,1377.00
2023-12-16T08:12:09.968Z,1375.00
2023-12-16T08:13:10.048Z,1369.00
2023-12-16T08:14:10.037Z,1369.00
2023-12-16T08:15:10.152Z,1367.00
2023-12-16T08:16:10.310Z,1361.00
2023-12-16T08:17:10.293Z,1360.00
2023-12-16T08:18:10.462Z,1355.00
2023-12-16T08:19:10.461Z,1357.00
2023-12-16T08:20:10.423Z,1357.00
2023-12-16T08:21:10.414Z,1358.00
2023-12-16T08:22:10.434Z,1359.00
2023-12-16T08:23:10.415Z,1357.00
2023-12-16T08:24:10.433Z,1354.00
2023-12-16T08:25:10.482Z,1354.00
2023-12-16T08:26:10.486Z,1352.00
2023-12-16T08:27:10.519Z,1351.00
2023-12-16T08:28:10.640Z,1345.00
2023-12-16T08:29:10.569Z,1344.00
2023-12-16T08:30:10.619Z,1344.00
2023-12-16T08:31:10.691Z,1341.00
2023-12-16T08:32:12.368Z,1340.00
2023-12-16T08:33:10.754Z,1338.00
2023-12-16T08:34:10.712Z,1338.00
2023-12-16T08:35:10.944Z,1338.00
2023-12-16T08:36:10.725Z,1336.00
2023-12-16T08:37:10.771Z,1332.00
2023-12-16T08:38:10.863Z,1331.00
2023-12-16T08:39:10.813Z,1331.00
2023-12-16T08:40:10.958Z,1328.00
2023-12-16T08:41:10.850Z,1329.00
2023-12-16T08:42:10.876Z,1327.00
2023-12-16T08:43:10.928Z,1326.00
2023-12-16T08:44:10.942Z,1325.00
2023-12-16T08:45:10.947Z,1325.00
2023-12-16T08:46:11.044Z,1326.00
2023-12-16T08:47:11.007Z,1321.00
2023-12-16T08:48:11.058Z,1320.00
2023-12-16T08:49:11.111Z,1319.00
2023-12-16T08:50:11.139Z,1316.00
2023-12-16T08:51:11.105Z,1314.00
2023-12-16T08:52:13.341Z,1310.00
2023-12-16T08:53:11.148Z,1312.00
2023-12-16T08:54:11.129Z,1312.00
2023-12-16T08:55:11.160Z,1312.00
2023-12-16T08:56:11.132Z,1310.00
2023-12-16T08:57:11.150Z,1308.00
2023-12-16T08:58:11.162Z,1307.00
2023-12-16T08:59:11.161Z,1306.00
2023-12-16T09:00:11.158Z,1306.00
2023-12-16T09:01:11.183Z,1308.00
2023-12-16T09:02:11.151Z,1306.00
2023-12-16T09:03:11.180Z,1304.00
2023-12-16T09:04:11.187Z,1303.00
2023-12-16T09:05:11.148Z,1297.00
2023-12-16T09:06:11.230Z,1297.00
2023-12-16T09:07:11.177Z,1299.00
2023-12-16T09:08:11.225Z,1299.00
2023-12-16T09:09:13.461Z,1301.00
2023-12-16T09:10:11.205Z,1301.00
2023-12-16T09:11:11.190Z,1299.00
2023-12-16T09:12:11.168Z,1298.00
2023-12-16T09:13:11.279Z,1299.00
2023-12-16T09:14:11.250Z,1297.00
2023-12-16T09:15:11.160Z,1294.00
2023-12-16T09:16:11.185Z,1294.00
2023-12-16T09:17:11.157Z,1297.00
2023-12-16T09:18:11.230Z,1296.00
2023-12-16T09:19:11.237Z,1296.00
2023-12-16T09:20:11.317Z,1295.00
2023-12-16T09:21:11.188Z,1290.00
2023-12-16T09:22:11.202Z,1286.00
2023-12-16T09:23:11.163Z,1285.00
2023-12-16T09:24:11.161Z,1281.00
2023-12-16T09:25:11.200Z,1276.00
2023-12-16T09:26:11.203Z,1274.00
2023-12-16T09:27:11.170Z,1273.00
2023-12-16T09:28:11.247Z,1272.00
2023-12-16T09:29:11.342Z,1271.00
2023-12-16T09:30:11.203Z,1272.00
2023-12-16T09:31:11.249Z,1272.00
2023-12-16T09:32:11.168Z,1272.00
2023-12-16T09:33:11.239Z,1272.00
2023-12-16T09:34:11.210Z,1271.00
2023-12-16T09:35:11.813Z,1271.00
2023-12-16T09:36:13.603Z,1269.00
2023-12-16T09:37:11.190Z,1268.00
2023-12-16T09:38:11.258Z,1267.00
2023-12-16T09:39:11.198Z,1264.00
2023-12-16T09:40:11.204Z,1265.00
2023-12-16T09:41:11.174Z,1263.00
2023-12-16T09:42:11.187Z,1262.00
2023-12-16T09:43:11.230Z,1258.00
2023-12-16T09:44:11.188Z,1257.00
2023-12-16T09:45:11.176Z,1257.00
2023-12-16T09:46:11.230Z,1256.00
2023-12-16T09:47:11.176Z,1253.00
2023-12-16T09:48:11.270Z,1253.00
2023-12-16T09:49:11.226Z,1251.00
2023-12-16T09:50:11.197Z,1249.00
2023-12-16T09:51:11.186Z,1247.00
2023-12-16T09:52:11.196Z,1243.00
2023-12-16T09:53:11.188Z,1240.00
2023-12-16T09:54:11.197Z,1237.00
2023-12-16T09:55:11.249Z,1241.00
2023-12-16T09:56:11.192Z,1240.00
2023-12-16T09:57:11.190Z,1238.00
2023-12-16T09:58:11.226Z,1235.00
2023-12-16T09:59:11.194Z,1234.00
2023-12-16T10:00:11.224Z,1232.00
2023-12-16T10:01:11.285Z,1234.00
2023-12-16T10:02:11.290Z,1232.00
2023-12-16T10:03:11.284Z,1231.00
2023-12-16T10:04:11.265Z,1229.00
2023-12-16T10:05:11.311Z,1232.00
2023-12-16T10:06:11.195Z,1230.00
2023-12-16T10:07:11.871Z,1228.00
2023-12-16T10:08:11.204Z,1227.00
2023-12-16T10:09:11.204Z,1226.00
2023-12-16T10:10:11.248Z,1226.00
2023-12-16T10:11:13.780Z,1224.00
2023-12-16T10:12:11.239Z,1223.00
2023-12-16T10:13:11.222Z,1223.00
2023-12-16T10:14:13.969Z,1223.00
2023-12-16T10:15:11.204Z,1222.00
2023-12-16T10:16:11.220Z,1219.00
2023-12-16T10:17:11.213Z,1214.00
2023-12-16T10:18:11.270Z,1212.00
2023-12-16T10:19:11.291Z,1209.00
2023-12-16T10:20:11.237Z,1209.00
2023-12-16T10:21:15.830Z,1207.00
2023-12-16T10:22:12.503Z,1206.00
2023-12-16T10:23:11.217Z,1208.00
2023-12-16T10:24:11.228Z,1205.00
2023-12-16T10:25:11.313Z,1204.00
2023-12-16T10:26:11.227Z,1200.00
2023-12-16T10:27:11.348Z,1197.00
2023-12-16T10:28:12.762Z,1196.00
2023-12-16T10:29:11.230Z,1197.00
2023-12-16T10:30:11.342Z,1197.00
2023-12-16T10:31:11.823Z,1196.00
2023-12-16T10:32:11.372Z,1196.00
2023-12-16T10:33:11.362Z,1194.00
2023-12-16T10:34:11.421Z,1191.00
2023-12-16T10:35:11.449Z,1192.00
2023-12-16T10:36:11.490Z,1192.00
2023-12-16T10:37:12.289Z,1191.00
2023-12-16T10:38:11.846Z,1190.00
2023-12-16T10:39:11.749Z,1191.00
2023-12-16T10:40:12.442Z,1191.00
2023-12-16T10:41:11.844Z,1191.00
2023-12-16T10:42:11.892Z,1190.00
2023-12-16T10:43:12.018Z,1189.00
2023-12-16T10:44:12.050Z,1190.00
2023-12-16T10:45:12.093Z,1190.00
2023-12-16T10:46:12.180Z,1186.00
2023-12-16T10:47:12.217Z,1183.00
2023-12-16T10:48:12.368Z,1183.00
2023-12-16T10:49:12.416Z,1180.00
2023-12-16T10:50:12.382Z,1179.00
2023-12-16T10:51:12.424Z,1177.00
2023-12-16T10:52:12.506Z,1177.00
2023-12-16T10:53:12.533Z,1177.00
2023-12-16T10:54:12.596Z,1175.00
2023-12-16T10:55:12.789Z,1172.00
2023-12-16T10:56:12.731Z,1170.00
2023-12-16T10:57:12.716Z,1171.00
2023-12-16T10:58:12.789Z,1174.00
2023-12-16T10:59:12.804Z,1176.00
2023-12-16T11:00:12.859Z,1175.00
2023-12-16T11:01:12.970Z,1173.00
2023-12-16T11:02:12.955Z,1173.00
2023-12-16T11:03:12.976Z,1173.00
2023-12-16T11:04:13.031Z,1174.00
2023-12-16T11:05:13.035Z,1172.00
2023-12-16T11:06:13.039Z,1172.00
2023-12-16T11:07:13.090Z,1171.00
2023-12-16T11:08:13.129Z,1171.00
2023-12-16T11:09:13.123Z,1169.00
2023-12-16T11:10:13.197Z,1167.00
2023-12-16T11:11:13.167Z,1166.00
2023-12-16T11:12:13.161Z,1168.00
2023-12-16T11:13:13.230Z,1165.00
2023-12-16T11:14:13.213Z,1162.00
2023-12-16T11:15:13.216Z,1160.00
2023-12-16T11:16:13.279Z,1158.00
2023-12-16T11:17:13.247Z,1153.00
2023-12-16T11:18:13.384Z,1153.00
2023-12-16T11:19:13.495Z,1152.00
2023-12-16T11:20:13.284Z,1145.00
2023-12-16T11:21:13.302Z,1142.00
2023-12-16T11:22:13.309Z,1142.00
2023-12-16T11:23:13.315Z,1143.00
2023-12-16T11:24:13.307Z,1144.00
2023-12-16T11:25:13.405Z,1146.00
2023-12-16T11:26:13.413Z,1146.00
2023-12-16T11:27:13.347Z,1146.00
2023-12-16T11:28:13.399Z,1145.00
2023-12-16T11:29:13.401Z,1146.00
2023-12-16T11:30:13.496Z,1145.00
2023-12-16T11:31:14.405Z,1141.00
2023-12-16T11:32:14.358Z,1141.00
2023-12-16T11:33:13.509Z,1143.00
2023-12-16T11:34:13.480Z,1146.00
2023-12-16T11:35:13.451Z,1144.00
2023-12-16T11:36:13.513Z,1141.00
2023-12-16T11:37:13.605Z,1138.00
2023-12-16T11:38:13.480Z,1136.00
2023-12-16T11:39:13.483Z,1137.00
2023-12-16T11:40:13.513Z,1139.00
2023-12-16T11:41:13.539Z,1141.00
2023-12-16T11:42:13.508Z,1140.00
2023-12-16T11:43:13.600Z,1139.00
2023-12-16T11:44:13.599Z,1139.00
2023-12-16T11:45:14.355Z,1139.00
2023-12-16T11:46:13.663Z,1138.00
2023-12-16T11:47:14.358Z,1138.00
2023-12-16T11:48:13.815Z,1132.00
2023-12-16T11:49:13.929Z,1133.00
2023-12-16T11:50:13.979Z,1135.00
2023-12-16T11:51:13.979Z,1134.00
2023-12-16T11:52:14.076Z,1131.00
2023-12-16T11:53:14.111Z,1129.00
2023-12-16T11:54:14.293Z,1132.00
2023-12-16T11:55:14.273Z,1134.00
2023-12-16T11:56:14.396Z,1136.00
2023-12-16T11:57:14.362Z,1135.00
2023-12-16T11:58:14.462Z,1135.00
2023-12-16T11:59:14.513Z,1133.00
2023-12-16T12:00:14.595Z,1130.00
2023-12-16T12:01:15.493Z,1130.00
2023-12-16T12:02:14.702Z,1129.00
2023-12-16T12:03:14.768Z,1130.00
2023-12-16T12:04:14.856Z,1134.00
2023-12-16T12:05:15.004Z,1132.00
2023-12-16T12:06:15.032Z,1134.00